sensor_id;sensor_type;location;lat;lon;timestamp;pressure;altitude;pressure_sealevel;temperature;humidity
42887;BME280;29032;56.028;92.904;2022-08-21T00:04:12;99384.59;;;13.64;65.52
42887;BME280;29032;56.028;92.904;2022-08-21T00:09:14;99380.09;;;13.61;65.01
42887;BME280;29032;56.028;92.904;2022-08-21T00:14:16;99387.91;;;13.55;64.83
42887;BME280;29032;56.028;92.904;2022-08-21T00:19:20;99389.44;;;13.56;64.90
42887;BME280;29032;56.028;92.904;2022-08-21T00:24:23;99387.34;;;13.49;64.72
42887;BME280;29032;56.028;92.904;2022-08-21T00:29:25;99396.13;;;13.45;64.78
42887;BME280;29032;56.028;92.904;2022-08-21T00:34:29;99401.91;;;13.55;64.50
42887;BME280;29032;56.028;92.904;2022-08-21T00:39:31;99395.03;;;13.56;64.52
42887;BME280;29032;56.028;92.904;2022-08-21T00:44:33;99395.78;;;13.64;64.41
42887;BME280;29032;56.028;92.904;2022-08-21T00:49:37;99397.31;;;13.73;64.46
42887;BME280;29032;56.028;92.904;2022-08-21T00:54:39;99393.94;;;13.74;63.72
42887;BME280;29032;56.028;92.904;2022-08-21T00:59:46;99388.34;;;13.74;63.93
42887;BME280;29032;56.028;92.904;2022-08-21T01:04:51;99389.84;;;13.75;63.71
42887;BME280;29032;56.028;92.904;2022-08-21T01:09:54;99395.06;;;13.71;63.60
42887;BME280;29032;56.028;92.904;2022-08-21T01:14:56;99399.19;;;13.70;63.12
42887;BME280;29032;56.028;92.904;2022-08-21T01:20:03;99398.06;;;13.73;63.36
42887;BME280;29032;56.028;92.904;2022-08-21T01:25:10;99393.59;;;13.70;63.03
42887;BME280;29032;56.028;92.904;2022-08-21T01:30:14;99390.97;;;13.72;63.10
42887;BME280;29032;56.028;92.904;2022-08-21T01:35:19;99384.25;;;13.75;62.23
42887;BME280;29032;56.028;92.904;2022-08-21T01:40:23;99393.59;;;13.78;62.88
42887;BME280;29032;56.028;92.904;2022-08-21T01:45:25;99390.59;;;13.84;61.75
42887;BME280;29032;56.028;92.904;2022-08-21T01:50:27;99386.69;;;13.87;62.00
42887;BME280;29032;56.028;92.904;2022-08-21T01:55:31;99385.38;;;13.88;61.69
42887;BME280;29032;56.028;92.904;2022-08-21T02:00:34;99384.63;;;13.87;61.83
42887;BME280;29032;56.028;92.904;2022-08-21T02:05:36;99385.75;;;13.92;61.45
42887;BME280;29032;56.028;92.904;2022-08-21T02:10:39;99382.22;;;14.07;61.13
42887;BME280;29032;56.028;92.904;2022-08-21T02:15:42;99384.06;;;14.04;60.58
42887;BME280;29032;56.028;92.904;2022-08-21T02:20:46;99395.25;;;14.12;60.92
42887;BME280;29032;56.028;92.904;2022-08-21T02:25:50;99385.00;;;14.14;61.08
42887;BME280;29032;56.028;92.904;2022-08-21T02:30:53;99386.50;;;14.15;60.48
42887;BME280;29032;56.028;92.904;2022-08-21T02:35:56;99393.22;;;14.27;60.25
42887;BME280;29032;56.028;92.904;2022-08-21T02:41:00;99405.13;;;14.43;59.06
42887;BME280;29032;56.028;92.904;2022-08-21T02:46:03;99404.75;;;14.47;58.50
42887;BME280;29032;56.028;92.904;2022-08-21T02:51:09;99401.19;;;14.54;58.71
42887;BME280;29032;56.028;92.904;2022-08-21T02:56:14;99415.56;;;14.58;59.01
42887;BME280;29032;56.028;92.904;2022-08-21T03:01:17;99421.91;;;14.51;58.14
42887;BME280;29032;56.028;92.904;2022-08-21T03:06:21;99414.81;;;14.57;59.03
42887;BME280;29032;56.028;92.904;2022-08-21T03:11:25;99424.13;;;14.68;57.35
42887;BME280;29032;56.028;92.904;2022-08-21T03:16:27;99415.16;;;14.69;58.48
42887;BME280;29032;56.028;92.904;2022-08-21T03:21:29;99422.63;;;14.74;57.19
42887;BME280;29032;56.028;92.904;2022-08-21T03:26:33;99415.91;;;14.77;57.61
42887;BME280;29032;56.028;92.904;2022-08-21T03:31:35;99421.91;;;14.74;56.60
42887;BME280;29032;56.028;92.904;2022-08-21T03:36:37;99420.03;;;14.76;56.84
42887;BME280;29032;56.028;92.904;2022-08-21T03:41:40;99412.16;;;14.82;56.78
42887;BME280;29032;56.028;92.904;2022-08-21T03:46:42;99404.13;;;14.87;55.04
42887;BME280;29032;56.028;92.904;2022-08-21T03:51:44;99399.63;;;14.91;56.30
42887;BME280;29032;56.028;92.904;2022-08-21T03:56:48;99399.94;;;15.03;55.82
42887;BME280;29032;56.028;92.904;2022-08-21T04:01:53;99393.00;;;15.11;54.75
42887;BME280;29032;56.028;92.904;2022-08-21T04:06:56;99399.69;;;15.16;54.89
42887;BME280;29032;56.028;92.904;2022-08-21T04:12:00;99382.78;;;15.31;54.04
42887;BME280;29032;56.028;92.904;2022-08-21T04:17:02;99388.00;;;15.35;52.67
42887;BME280;29032;56.028;92.904;2022-08-21T04:22:04;99378.41;;;15.46;53.04
42887;BME280;29032;56.028;92.904;2022-08-21T04:27:08;99364.25;;;15.69;53.93
42887;BME280;29032;56.028;92.904;2022-08-21T04:32:10;99361.41;;;15.76;52.77
42887;BME280;29032;56.028;92.904;2022-08-21T04:37:12;99363.84;;;15.72;52.06
42887;BME280;29032;56.028;92.904;2022-08-21T04:42:16;99368.66;;;15.79;52.16
42887;BME280;29032;56.028;92.904;2022-08-21T04:47:18;99362.53;;;15.73;50.58
42887;BME280;29032;56.028;92.904;2022-08-21T04:52:22;99354.03;;;15.81;51.58
42887;BME280;29032;56.028;92.904;2022-08-21T04:57:26;99340.81;;;15.99;52.26
42887;BME280;29032;56.028;92.904;2022-08-21T05:02:28;99342.66;;;16.04;51.88
42887;BME280;29032;56.028;92.904;2022-08-21T05:07:31;99333.97;;;16.09;50.85
42887;BME280;29032;56.028;92.904;2022-08-21T05:12:35;99338.44;;;16.12;50.33
42887;BME280;29032;56.028;92.904;2022-08-21T05:17:37;99336.75;;;16.09;50.04
42887;BME280;29032;56.028;92.904;2022-08-21T05:22:39;99323.66;;;16.12;49.82
42887;BME280;29032;56.028;92.904;2022-08-21T05:27:43;99312.25;;;16.27;49.26
42887;BME280;29032;56.028;92.904;2022-08-21T05:32:45;99310.59;;;16.41;49.59
42887;BME280;29032;56.028;92.904;2022-08-21T05:37:47;99300.50;;;16.56;49.79
42887;BME280;29032;56.028;92.904;2022-08-21T05:42:51;99294.66;;;16.61;50.37
42887;BME280;29032;56.028;92.904;2022-08-21T05:47:53;99295.00;;;16.48;51.18
42887;BME280;29032;56.028;92.904;2022-08-21T05:52:56;99300.53;;;16.38;50.19
42887;BME280;29032;56.028;92.904;2022-08-21T05:57:59;99303.84;;;16.27;50.35
42887;BME280;29032;56.028;92.904;2022-08-21T06:03:02;99307.47;;;16.20;51.08
42887;BME280;29032;56.028;92.904;2022-08-21T06:08:05;99299.69;;;16.28;51.00
42887;BME280;29032;56.028;92.904;2022-08-21T06:13:08;99299.44;;;16.51;51.47
42887;BME280;29032;56.028;92.904;2022-08-21T06:18:11;99290.38;;;16.60;50.76
42887;BME280;29032;56.028;92.904;2022-08-21T06:23:13;99293.56;;;16.57;50.11
42887;BME280;29032;56.028;92.904;2022-08-21T06:28:17;99284.81;;;16.70;50.77
42887;BME280;29032;56.028;92.904;2022-08-21T06:33:19;99272.88;;;16.79;51.10
42887;BME280;29032;56.028;92.904;2022-08-21T06:38:21;99265.56;;;16.93;49.61
42887;BME280;29032;56.028;92.904;2022-08-21T06:43:25;99284.13;;;17.06;46.16
42887;BME280;29032;56.028;92.904;2022-08-21T06:48:27;99274.47;;;16.99;45.54
42887;BME280;29032;56.028;92.904;2022-08-21T06:53:29;99262.34;;;16.97;43.97
42887;BME280;29032;56.028;92.904;2022-08-21T06:58:32;99257.31;;;16.95;43.73
42887;BME280;29032;56.028;92.904;2022-08-21T07:03:37;99258.78;;;16.96;43.24
42887;BME280;29032;56.028;92.904;2022-08-21T07:08:39;99256.47;;;17.02;42.65
42887;BME280;29032;56.028;92.904;2022-08-21T07:13:43;99251.84;;;17.34;42.46
42887;BME280;29032;56.028;92.904;2022-08-21T07:18:45;99242.91;;;17.55;41.38
42887;BME280;29032;56.028;92.904;2022-08-21T07:23:49;99243.22;;;17.78;41.90
42887;BME280;29032;56.028;92.904;2022-08-21T07:28:53;99239.84;;;17.80;40.44
42887;BME280;29032;56.028;92.904;2022-08-21T07:33:56;99232.41;;;17.75;40.95
42887;BME280;29032;56.028;92.904;2022-08-21T07:38:58;99231.69;;;17.74;41.29
42887;BME280;29032;56.028;92.904;2022-08-21T07:44:02;99223.09;;;17.82;41.45
42887;BME280;29032;56.028;92.904;2022-08-21T07:49:04;99204.72;;;17.81;41.77
42887;BME280;29032;56.028;92.904;2022-08-21T07:54:06;99197.63;;;17.80;43.15
42887;BME280;29032;56.028;92.904;2022-08-21T07:59:09;99185.00;;;17.81;43.08
42887;BME280;29032;56.028;92.904;2022-08-21T08:04:12;99186.81;;;17.86;42.93
42887;BME280;29032;56.028;92.904;2022-08-21T08:09:14;99170.47;;;17.84;42.43
42887;BME280;29032;56.028;92.904;2022-08-21T08:14:17;99177.44;;;17.83;42.60
42887;BME280;29032;56.028;92.904;2022-08-21T08:19:19;99172.09;;;17.78;43.13
42887;BME280;29032;56.028;92.904;2022-08-21T08:24:21;99175.66;;;17.98;42.21
42887;BME280;29032;56.028;92.904;2022-08-21T08:29:25;99177.88;;;18.19;41.92
42887;BME280;29032;56.028;92.904;2022-08-21T08:34:27;99173.16;;;18.31;40.88
42887;BME280;29032;56.028;92.904;2022-08-21T08:39:29;99162.84;;;18.64;40.44
42887;BME280;29032;56.028;92.904;2022-08-21T08:44:33;99176.59;;;18.80;40.35
42887;BME280;29032;56.028;92.904;2022-08-21T08:49:37;99166.06;;;18.71;40.31
42887;BME280;29032;56.028;92.904;2022-08-21T08:54:45;99176.59;;;18.80;41.01
42887;BME280;29032;56.028;92.904;2022-08-21T08:59:52;99179.50;;;18.91;40.61
42887;BME280;29032;56.028;92.904;2022-08-21T09:04:55;99175.69;;;18.77;39.87
42887;BME280;29032;56.028;92.904;2022-08-21T09:10:12;99186.28;;;18.67;40.17
42887;BME280;29032;56.028;92.904;2022-08-21T09:15:23;99192.25;;;18.42;39.44
42887;BME280;29032;56.028;92.904;2022-08-21T09:20:36;99239.69;;;18.07;42.66
42887;BME280;29032;56.028;92.904;2022-08-21T09:25:43;99241.78;;;17.41;46.14
42887;BME280;29032;56.028;92.904;2022-08-21T09:30:50;99254.66;;;16.97;46.92
42887;BME280;29032;56.028;92.904;2022-08-21T09:35:56;99262.66;;;16.57;48.34
42887;BME280;29032;56.028;92.904;2022-08-21T09:41:01;99266.72;;;16.46;48.53
42887;BME280;29032;56.028;92.904;2022-08-21T09:46:09;99253.09;;;16.42;47.71
42887;BME280;29032;56.028;92.904;2022-08-21T09:51:13;99249.19;;;16.38;46.84
42887;BME280;29032;56.028;92.904;2022-08-21T09:56:31;99253.75;;;16.51;46.50
42887;BME280;29032;56.028;92.904;2022-08-21T10:01:43;99243.16;;;16.59;46.40
42887;BME280;29032;56.028;92.904;2022-08-21T10:06:45;99247.38;;;16.50;46.53
42887;BME280;29032;56.028;92.904;2022-08-21T10:11:56;99237.22;;;16.55;46.77
42887;BME280;29032;56.028;92.904;2022-08-21T10:17:10;99235.50;;;16.59;45.95
42887;BME280;29032;56.028;92.904;2022-08-21T10:22:21;99234.00;;;16.58;46.22
42887;BME280;29032;56.028;92.904;2022-08-21T10:27:35;99231.38;;;16.60;46.27
42887;BME280;29032;56.028;92.904;2022-08-21T10:32:51;99228.84;;;16.64;45.54
42887;BME280;29032;56.028;92.904;2022-08-21T10:38:08;99223.25;;;16.64;45.12
42887;BME280;29032;56.028;92.904;2022-08-21T10:43:23;99230.19;;;16.63;45.52
42887;BME280;29032;56.028;92.904;2022-08-21T10:48:35;99225.91;;;16.62;45.84
42887;BME280;29032;56.028;92.904;2022-08-21T10:53:47;99219.84;;;16.66;46.28
42887;BME280;29032;56.028;92.904;2022-08-21T10:59:04;99224.63;;;16.73;46.21
42887;BME280;29032;56.028;92.904;2022-08-21T11:04:13;99211.41;;;16.66;45.79
42887;BME280;29032;56.028;92.904;2022-08-21T11:09:19;99228.13;;;16.64;46.28
42887;BME280;29032;56.028;92.904;2022-08-21T11:14:29;99215.88;;;16.69;46.52
42887;BME280;29032;56.028;92.904;2022-08-21T11:19:39;99206.84;;;16.70;46.84
42887;BME280;29032;56.028;92.904;2022-08-21T11:24:46;99197.53;;;16.68;46.72
42887;BME280;29032;56.028;92.904;2022-08-21T11:29:53;99209.63;;;16.61;46.90
42887;BME280;29032;56.028;92.904;2022-08-21T11:35:03;99200.59;;;16.62;47.24
42887;BME280;29032;56.028;92.904;2022-08-21T11:40:15;99190.75;;;16.54;47.39
42887;BME280;29032;56.028;92.904;2022-08-21T11:45:25;99196.72;;;16.58;47.40
42887;BME280;29032;56.028;92.904;2022-08-21T11:50:32;99188.97;;;16.48;47.66
42887;BME280;29032;56.028;92.904;2022-08-21T11:55:38;99199.03;;;16.52;47.54
42887;BME280;29032;56.028;92.904;2022-08-21T12:00:48;99209.53;;;16.51;47.74
42887;BME280;29032;56.028;92.904;2022-08-21T12:05:55;99206.56;;;16.49;48.13
42887;BME280;29032;56.028;92.904;2022-08-21T12:11:04;99207.63;;;16.54;47.91
42887;BME280;29032;56.028;92.904;2022-08-21T12:16:08;99214.09;;;16.46;47.86
42887;BME280;29032;56.028;92.904;2022-08-21T12:21:21;99211.78;;;16.53;48.37
42887;BME280;29032;56.028;92.904;2022-08-21T12:26:27;99220.44;;;16.47;47.97
42887;BME280;29032;56.028;92.904;2022-08-21T12:31:29;99215.09;;;16.41;47.74
42887;BME280;29032;56.028;92.904;2022-08-21T12:36:48;99219.72;;;16.46;47.93
42887;BME280;29032;56.028;92.904;2022-08-21T12:41:55;99232.78;;;16.34;47.99
42887;BME280;29032;56.028;92.904;2022-08-21T12:47:02;99229.06;;;16.32;48.09
42887;BME280;29032;56.028;92.904;2022-08-21T12:52:12;99232.63;;;16.32;48.10
42887;BME280;29032;56.028;92.904;2022-08-21T12:57:21;99237.75;;;16.26;48.21
42887;BME280;29032;56.028;92.904;2022-08-21T13:02:28;99236.28;;;16.25;48.14
42887;BME280;29032;56.028;92.904;2022-08-21T13:07:35;99244.09;;;16.27;48.32
42887;BME280;29032;56.028;92.904;2022-08-21T13:12:38;99251.28;;;16.20;47.57
42887;BME280;29032;56.028;92.904;2022-08-21T13:17:44;99263.84;;;16.19;47.93
42887;BME280;29032;56.028;92.904;2022-08-21T13:22:49;99269.97;;;16.08;47.95
42887;BME280;29032;56.028;92.904;2022-08-21T13:28:00;99282.66;;;16.09;48.55
42887;BME280;29032;56.028;92.904;2022-08-21T13:33:05;99292.19;;;15.96;48.52
42887;BME280;29032;56.028;92.904;2022-08-21T13:38:09;99287.78;;;15.85;48.83
42887;BME280;29032;56.028;92.904;2022-08-21T13:43:12;99290.06;;;15.79;48.94
42887;BME280;29032;56.028;92.904;2022-08-21T13:48:16;99301.28;;;15.79;49.77
42887;BME280;29032;56.028;92.904;2022-08-21T13:53:28;99297.28;;;15.90;49.81
42887;BME280;29032;56.028;92.904;2022-08-21T13:58:42;99301.66;;;15.83;50.80
42887;BME280;29032;56.028;92.904;2022-08-21T14:03:45;99306.91;;;15.79;50.84
42887;BME280;29032;56.028;92.904;2022-08-21T14:08:53;99294.38;;;15.80;51.88
42887;BME280;29032;56.028;92.904;2022-08-21T14:13:59;99305.06;;;15.74;52.28
42887;BME280;29032;56.028;92.904;2022-08-21T14:19:11;99297.97;;;15.73;52.59
42887;BME280;29032;56.028;92.904;2022-08-21T14:24:26;99301.53;;;15.74;52.80
42887;BME280;29032;56.028;92.904;2022-08-21T14:29:33;99298.81;;;15.58;52.96
42887;BME280;29032;56.028;92.904;2022-08-21T14:34:36;99301.81;;;15.35;53.68
42887;BME280;29032;56.028;92.904;2022-08-21T14:39:39;99292.72;;;15.27;54.22
42887;BME280;29032;56.028;92.904;2022-08-21T14:44:42;99286.06;;;15.15;54.19
42887;BME280;29032;56.028;92.904;2022-08-21T14:49:44;99277.69;;;15.07;54.85
42887;BME280;29032;56.028;92.904;2022-08-21T14:54:48;99270.75;;;15.08;55.06
42887;BME280;29032;56.028;92.904;2022-08-21T14:59:50;99263.56;;;14.98;55.24
42887;BME280;29032;56.028;92.904;2022-08-21T15:04:52;99263.19;;;14.94;55.95
42887;BME280;29032;56.028;92.904;2022-08-21T15:09:56;99260.75;;;14.98;55.15
42887;BME280;29032;56.028;92.904;2022-08-21T15:14:58;99274.03;;;14.90;54.29
42887;BME280;29032;56.028;92.904;2022-08-21T15:20:00;99282.69;;;14.84;54.88
42887;BME280;29032;56.028;92.904;2022-08-21T15:25:04;99290.16;;;14.81;54.98
42887;BME280;29032;56.028;92.904;2022-08-21T15:30:07;99286.28;;;14.69;55.40
42887;BME280;29032;56.028;92.904;2022-08-21T15:35:09;99288.16;;;14.67;55.13
42887;BME280;29032;56.028;92.904;2022-08-21T15:40:14;99293.38;;;14.70;56.30
42887;BME280;29032;56.028;92.904;2022-08-21T15:45:17;99294.31;;;14.65;55.98
42887;BME280;29032;56.028;92.904;2022-08-21T15:50:19;99291.53;;;14.65;55.60
42887;BME280;29032;56.028;92.904;2022-08-21T15:55:23;99293.41;;;14.63;55.93
42887;BME280;29032;56.028;92.904;2022-08-21T16:00:25;99296.25;;;14.47;55.48
42887;BME280;29032;56.028;92.904;2022-08-21T16:05:28;99300.19;;;14.44;55.62
42887;BME280;29032;56.028;92.904;2022-08-21T16:10:34;99308.03;;;14.46;56.26
42887;BME280;29032;56.028;92.904;2022-08-21T16:15:37;99305.25;;;14.38;56.16
42887;BME280;29032;56.028;92.904;2022-08-21T16:20:41;99297.03;;;14.33;56.89
42887;BME280;29032;56.028;92.904;2022-08-21T16:25:44;99309.72;;;14.34;56.43
42887;BME280;29032;56.028;92.904;2022-08-21T16:30:49;99296.88;;;14.30;56.95
42887;BME280;29032;56.028;92.904;2022-08-21T16:35:51;99296.31;;;14.24;56.66
42887;BME280;29032;56.028;92.904;2022-08-21T16:40:55;99310.69;;;14.28;56.89
42887;BME280;29032;56.028;92.904;2022-08-21T16:45:57;99298.78;;;14.20;56.70
42887;BME280;29032;56.028;92.904;2022-08-21T16:51:00;99309.59;;;14.16;57.17
42887;BME280;29032;56.028;92.904;2022-08-21T16:56:04;99306.41;;;14.12;57.95
42887;BME280;29032;56.028;92.904;2022-08-21T17:01:08;99307.75;;;14.03;58.12
42887;BME280;29032;56.028;92.904;2022-08-21T17:06:11;99308.91;;;13.93;59.74
42887;BME280;29032;56.028;92.904;2022-08-21T17:11:21;99300.50;;;13.85;59.65
42887;BME280;29032;56.028;92.904;2022-08-21T17:16:24;99317.66;;;13.74;60.46
42887;BME280;29032;56.028;92.904;2022-08-21T17:21:26;99319.34;;;13.69;60.77
42887;BME280;29032;56.028;92.904;2022-08-21T17:26:30;99322.66;;;13.68;60.59
42887;BME280;29032;56.028;92.904;2022-08-21T17:31:33;99314.84;;;13.59;61.03
42887;BME280;29032;56.028;92.904;2022-08-21T17:36:35;99328.09;;;13.58;61.93
42887;BME280;29032;56.028;92.904;2022-08-21T17:41:40;99325.66;;;13.62;61.67
42887;BME280;29032;56.028;92.904;2022-08-21T17:46:43;99327.69;;;13.54;62.34
42887;BME280;29032;56.028;92.904;2022-08-21T17:51:45;99324.91;;;13.54;61.61
42887;BME280;29032;56.028;92.904;2022-08-21T17:56:49;99327.34;;;13.58;61.61
42887;BME280;29032;56.028;92.904;2022-08-21T18:01:51;99333.84;;;13.45;62.31
42887;BME280;29032;56.028;92.904;2022-08-21T18:06:54;99334.94;;;13.42;62.29
42887;BME280;29032;56.028;92.904;2022-08-21T18:11:58;99329.00;;;13.53;62.11
42887;BME280;29032;56.028;92.904;2022-08-21T18:17:00;99327.91;;;13.56;61.99
42887;BME280;29032;56.028;92.904;2022-08-21T18:22:03;99328.25;;;13.60;61.90
42887;BME280;29032;56.028;92.904;2022-08-21T18:27:07;99321.56;;;13.63;61.98
42887;BME280;29032;56.028;92.904;2022-08-21T18:32:10;99329.41;;;13.57;61.83
42887;BME280;29032;56.028;92.904;2022-08-21T18:37:12;99323.41;;;13.53;62.36
42887;BME280;29032;56.028;92.904;2022-08-21T18:42:16;99318.56;;;13.54;62.06
42887;BME280;29032;56.028;92.904;2022-08-21T18:47:21;99316.31;;;13.52;61.75
42887;BME280;29032;56.028;92.904;2022-08-21T18:52:23;99328.25;;;13.45;62.10
42887;BME280;29032;56.028;92.904;2022-08-21T18:57:28;99328.44;;;13.55;61.80
42887;BME280;29032;56.028;92.904;2022-08-21T19:02:31;99322.28;;;13.41;62.52
42887;BME280;29032;56.028;92.904;2022-08-21T19:07:33;99320.78;;;13.40;62.32
42887;BME280;29032;56.028;92.904;2022-08-21T19:12:37;99318.72;;;13.40;62.08
42887;BME280;29032;56.028;92.904;2022-08-21T19:17:40;99314.84;;;13.36;62.26
42887;BME280;29032;56.028;92.904;2022-08-21T19:22:43;99312.03;;;13.36;62.21
42887;BME280;29032;56.028;92.904;2022-08-21T19:27:46;99302.91;;;13.43;62.09
42887;BME280;29032;56.028;92.904;2022-08-21T19:32:49;99310.56;;;13.42;61.75
42887;BME280;29032;56.028;92.904;2022-08-21T19:37:51;99301.22;;;13.40;61.79
42887;BME280;29032;56.028;92.904;2022-08-21T19:42:54;99297.66;;;13.39;61.62
42887;BME280;29032;56.028;92.904;2022-08-21T19:47:56;99299.16;;;13.33;61.56
42887;BME280;29032;56.028;92.904;2022-08-21T19:52:58;99295.44;;;13.38;61.05
42887;BME280;29032;56.028;92.904;2022-08-21T19:58:02;99290.22;;;13.50;60.90
42887;BME280;29032;56.028;92.904;2022-08-21T20:03:05;99301.59;;;13.44;60.70
42887;BME280;29032;56.028;92.904;2022-08-21T20:08:07;99307.72;;;13.35;61.36
42887;BME280;29032;56.028;92.904;2022-08-21T20:13:11;99304.75;;;13.33;61.33
42887;BME280;29032;56.028;92.904;2022-08-21T20:18:13;99292.41;;;13.20;62.04
42887;BME280;29032;56.028;92.904;2022-08-21T20:23:15;99287.19;;;13.09;62.04
42887;BME280;29032;56.028;92.904;2022-08-21T20:28:19;99305.84;;;13.14;62.10
42887;BME280;29032;56.028;92.904;2022-08-21T20:33:21;99303.59;;;13.13;61.92
42887;BME280;29032;56.028;92.904;2022-08-21T20:38:24;99310.50;;;13.19;61.68
42887;BME280;29032;56.028;92.904;2022-08-21T20:43:27;99308.28;;;13.26;61.68
42887;BME280;29032;56.028;92.904;2022-08-21T20:48:31;99301.00;;;13.23;61.55
42887;BME280;29032;56.028;92.904;2022-08-21T20:53:35;99298.56;;;13.19;61.69
42887;BME280;29032;56.028;92.904;2022-08-21T20:58:48;99299.88;;;13.26;61.56
42887;BME280;29032;56.028;92.904;2022-08-21T21:03:56;99296.91;;;13.24;61.41
42887;BME280;29032;56.028;92.904;2022-08-21T21:09:08;99306.97;;;13.27;60.98
42887;BME280;29032;56.028;92.904;2022-08-21T21:14:16;99304.16;;;13.27;61.56
42887;BME280;29032;56.028;92.904;2022-08-21T21:19:33;99313.69;;;13.39;61.48
42887;BME280;29032;56.028;92.904;2022-08-21T21:24:46;99308.84;;;13.47;61.00
42887;BME280;29032;56.028;92.904;2022-08-21T21:29:55;99319.28;;;13.39;60.86
42887;BME280;29032;56.028;92.904;2022-08-21T21:34:59;99325.63;;;13.24;61.21
42887;BME280;29032;56.028;92.904;2022-08-21T21:40:24;99329.91;;;13.33;60.99
42887;BME280;29032;56.028;92.904;2022-08-21T21:45:37;99327.47;;;13.22;61.59
42887;BME280;29032;56.028;92.904;2022-08-21T21:50:51;99342.19;;;13.14;62.16
42887;BME280;29032;56.028;92.904;2022-08-21T21:56:04;99343.47;;;13.13;62.04
42887;BME280;29032;56.028;92.904;2022-08-21T22:01:11;99348.69;;;13.09;62.43
42887;BME280;29032;56.028;92.904;2022-08-21T22:06:22;99351.47;;;13.09;62.18
42887;BME280;29032;56.028;92.904;2022-08-21T22:11:32;99354.28;;;13.09;62.58
42887;BME280;29032;56.028;92.904;2022-08-21T22:16:44;99341.78;;;13.10;62.17
42887;BME280;29032;56.028;92.904;2022-08-21T22:21:51;99357.63;;;13.08;62.13
42887;BME280;29032;56.028;92.904;2022-08-21T22:26:59;99351.28;;;13.07;61.93
42887;BME280;29032;56.028;92.904;2022-08-21T22:32:06;99357.97;;;13.04;61.53
42887;BME280;29032;56.028;92.904;2022-08-21T22:37:10;99365.06;;;13.05;61.25
42887;BME280;29032;56.028;92.904;2022-08-21T22:42:13;99366.53;;;13.06;60.97
42887;BME280;29032;56.028;92.904;2022-08-21T22:47:25;99375.16;;;13.08;60.93
42887;BME280;29032;56.028;92.904;2022-08-21T22:52:33;99373.25;;;13.03;60.16
42887;BME280;29032;56.028;92.904;2022-08-21T22:57:36;99377.34;;;13.02;59.95
42887;BME280;29032;56.028;92.904;2022-08-21T23:02:43;99384.84;;;13.07;59.37
42887;BME280;29032;56.028;92.904;2022-08-21T23:07:47;99392.22;;;12.97;58.58
42887;BME280;29032;56.028;92.904;2022-08-21T23:12:52;99393.13;;;12.92;59.10
42887;BME280;29032;56.028;92.904;2022-08-21T23:17:59;99392.69;;;13.16;58.95
42887;BME280;29032;56.028;92.904;2022-08-21T23:23:09;99398.22;;;13.01;58.81
42887;BME280;29032;56.028;92.904;2022-08-21T23:28:24;99401.91;;;12.96;58.99
42887;BME280;29032;56.028;92.904;2022-08-21T23:39:05;99405.63;;;12.99;58.70
42887;BME280;29032;56.028;92.904;2022-08-21T23:44:19;99417.00;;;12.93;58.21
42887;BME280;29032;56.028;92.904;2022-08-21T23:49:36;99411.41;;;12.93;58.52
42887;BME280;29032;56.028;92.904;2022-08-21T23:54:43;99424.34;;;13.11;58.23
42887;BME280;29032;56.028;92.904;2022-08-21T23:59:57;99417.56;;;12.99;57.72
